sensor_id;sensor_type;location;lat;lon;timestamp;P1;durP1;ratioP1;P2;durP2;ratioP2
22711;SDS011;11523;50.390;8.072;2024-03-02T00:01:30;11.50;;;9.55;;
22711;SDS011;11523;50.390;8.072;2024-03-02T00:03:56;15.40;;;10.60;;
22711;SDS011;11523;50.390;8.072;2024-03-02T00:06:21;11.98;;;10.07;;
22711;SDS011;11523;50.390;8.072;2024-03-02T00:08:48;15.55;;;9.73;;
22711;SDS011;11523;50.390;8.072;2024-03-02T00:11:14;11.90;;;9.68;;
22711;SDS011;11523;50.390;8.072;2024-03-02T00:13:41;11.63;;;9.32;;
22711;SDS011;11523;50.390;8.072;2024-03-02T00:16:07;13.57;;;9.70;;
22711;SDS011;11523;50.390;8.072;2024-03-02T00:18:34;12.23;;;9.50;;
22711;SDS011;11523;50.390;8.072;2024-03-02T00:21:06;12.15;;;9.05;;
22711;SDS011;11523;50.390;8.072;2024-03-02T00:23:36;12.27;;;9.60;;
22711;SDS011;11523;50.390;8.072;2024-03-02T00:26:03;13.77;;;9.77;;
22711;SDS011;11523;50.390;8.072;2024-03-02T00:28:33;10.90;;;9.35;;
22711;SDS011;11523;50.390;8.072;2024-03-02T00:31:12;14.07;;;10.05;;
22711;SDS011;11523;50.390;8.072;2024-03-02T00:33:42;12.52;;;9.95;;
22711;SDS011;11523;50.390;8.072;2024-03-02T00:36:08;13.85;;;10.90;;
22711;SDS011;11523;50.390;8.072;2024-03-02T00:38:35;12.82;;;9.73;;
22711;SDS011;11523;50.390;8.072;2024-03-02T00:41:05;14.82;;;10.10;;
22711;SDS011;11523;50.390;8.072;2024-03-02T00:46:00;13.10;;;9.73;;
22711;SDS011;11523;50.390;8.072;2024-03-02T00:48:26;13.88;;;10.27;;
22711;SDS011;11523;50.390;8.072;2024-03-02T00:50:52;14.30;;;10.73;;
22711;SDS011;11523;50.390;8.072;2024-03-02T00:53:19;12.52;;;10.13;;
22711;SDS011;11523;50.390;8.072;2024-03-02T00:55:49;15.05;;;10.35;;
22711;SDS011;11523;50.390;8.072;2024-03-02T00:58:15;13.27;;;10.52;;
22711;SDS011;11523;50.390;8.072;2024-03-02T01:00:41;13.60;;;10.32;;
22711;SDS011;11523;50.390;8.072;2024-03-02T01:03:07;13.68;;;10.35;;
22711;SDS011;11523;50.390;8.072;2024-03-02T01:05:33;16.13;;;10.70;;
22711;SDS011;11523;50.390;8.072;2024-03-02T01:07:59;13.77;;;10.55;;
22711;SDS011;11523;50.390;8.072;2024-03-02T01:10:25;17.45;;;10.70;;
22711;SDS011;11523;50.390;8.072;2024-03-02T01:12:51;14.65;;;10.98;;
22711;SDS011;11523;50.390;8.072;2024-03-02T01:15:17;15.63;;;11.18;;
22711;SDS011;11523;50.390;8.072;2024-03-02T01:17:44;12.75;;;10.77;;
22711;SDS011;11523;50.390;8.072;2024-03-02T01:20:10;13.23;;;10.90;;
22711;SDS011;11523;50.390;8.072;2024-03-02T01:22:36;15.85;;;11.63;;
22711;SDS011;11523;50.390;8.072;2024-03-02T01:25:02;15.63;;;11.25;;
22711;SDS011;11523;50.390;8.072;2024-03-02T01:27:28;14.73;;;11.70;;
22711;SDS011;11523;50.390;8.072;2024-03-02T01:29:54;14.45;;;11.63;;
22711;SDS011;11523;50.390;8.072;2024-03-02T01:32:20;14.02;;;11.32;;
22711;SDS011;11523;50.390;8.072;2024-03-02T01:34:46;14.15;;;10.80;;
22711;SDS011;11523;50.390;8.072;2024-03-02T01:37:12;15.05;;;11.07;;
22711;SDS011;11523;50.390;8.072;2024-03-02T01:39:38;13.80;;;11.63;;
22711;SDS011;11523;50.390;8.072;2024-03-02T01:42:04;16.40;;;12.40;;
22711;SDS011;11523;50.390;8.072;2024-03-02T01:44:30;13.63;;;11.75;;
22711;SDS011;11523;50.390;8.072;2024-03-02T01:46:56;15.00;;;11.60;;
22711;SDS011;11523;50.390;8.072;2024-03-02T01:49:22;14.68;;;11.50;;
22711;SDS011;11523;50.390;8.072;2024-03-02T01:51:48;15.15;;;11.35;;
22711;SDS011;11523;50.390;8.072;2024-03-02T01:54:14;16.48;;;11.98;;
22711;SDS011;11523;50.390;8.072;2024-03-02T01:56:46;14.48;;;11.45;;
22711;SDS011;11523;50.390;8.072;2024-03-02T01:59:12;14.65;;;11.32;;
22711;SDS011;11523;50.390;8.072;2024-03-02T02:01:38;14.82;;;11.75;;
22711;SDS011;11523;50.390;8.072;2024-03-02T02:04:04;14.25;;;10.98;;
22711;SDS011;11523;50.390;8.072;2024-03-02T02:06:31;16.45;;;11.52;;
22711;SDS011;11523;50.390;8.072;2024-03-02T02:08:57;14.30;;;10.93;;
22711;SDS011;11523;50.390;8.072;2024-03-02T02:11:24;12.65;;;10.40;;
22711;SDS011;11523;50.390;8.072;2024-03-02T02:13:50;15.65;;;10.95;;
22711;SDS011;11523;50.390;8.072;2024-03-02T02:16:16;14.10;;;11.10;;
22711;SDS011;11523;50.390;8.072;2024-03-02T02:18:42;14.98;;;10.98;;
22711;SDS011;11523;50.390;8.072;2024-03-02T02:21:08;16.05;;;10.77;;
22711;SDS011;11523;50.390;8.072;2024-03-02T02:23:34;14.75;;;10.98;;
22711;SDS011;11523;50.390;8.072;2024-03-02T02:26:00;15.18;;;11.57;;
22711;SDS011;11523;50.390;8.072;2024-03-02T02:28:27;15.75;;;10.77;;
22711;SDS011;11523;50.390;8.072;2024-03-02T02:30:54;14.95;;;11.20;;
22711;SDS011;11523;50.390;8.072;2024-03-02T02:33:25;14.63;;;10.32;;
22711;SDS011;11523;50.390;8.072;2024-03-02T02:35:51;14.82;;;10.77;;
22711;SDS011;11523;50.390;8.072;2024-03-02T02:38:16;14.32;;;11.00;;
22711;SDS011;11523;50.390;8.072;2024-03-02T02:40:44;16.02;;;10.77;;
22711;SDS011;11523;50.390;8.072;2024-03-02T02:43:10;14.70;;;11.00;;
22711;SDS011;11523;50.390;8.072;2024-03-02T02:45:36;14.65;;;11.23;;
22711;SDS011;11523;50.390;8.072;2024-03-02T02:48:02;14.88;;;11.13;;
22711;SDS011;11523;50.390;8.072;2024-03-02T02:50:28;18.67;;;12.57;;
22711;SDS011;11523;50.390;8.072;2024-03-02T02:52:54;17.42;;;11.80;;
22711;SDS011;11523;50.390;8.072;2024-03-02T02:55:20;18.77;;;11.60;;
22711;SDS011;11523;50.390;8.072;2024-03-02T02:57:46;17.92;;;11.73;;
22711;SDS011;11523;50.390;8.072;2024-03-02T03:00:13;15.05;;;11.27;;
22711;SDS011;11523;50.390;8.072;2024-03-02T03:02:43;16.08;;;11.68;;
22711;SDS011;11523;50.390;8.072;2024-03-02T03:05:09;15.73;;;11.18;;
22711;SDS011;11523;50.390;8.072;2024-03-02T03:07:42;16.10;;;12.23;;
22711;SDS011;11523;50.390;8.072;2024-03-02T03:10:22;19.30;;;11.82;;
22711;SDS011;11523;50.390;8.072;2024-03-02T03:12:50;15.95;;;12.52;;
22711;SDS011;11523;50.390;8.072;2024-03-02T03:15:23;16.52;;;11.30;;
22711;SDS011;11523;50.390;8.072;2024-03-02T03:17:50;14.15;;;12.00;;
22711;SDS011;11523;50.390;8.072;2024-03-02T03:20:16;15.52;;;12.07;;
22711;SDS011;11523;50.390;8.072;2024-03-02T03:22:42;16.33;;;11.85;;
22711;SDS011;11523;50.390;8.072;2024-03-02T03:25:08;17.17;;;12.23;;
22711;SDS011;11523;50.390;8.072;2024-03-02T03:27:34;14.70;;;12.40;;
22711;SDS011;11523;50.390;8.072;2024-03-02T03:30:00;17.73;;;12.70;;
22711;SDS011;11523;50.390;8.072;2024-03-02T03:32:27;16.80;;;12.50;;
22711;SDS011;11523;50.390;8.072;2024-03-02T03:34:53;16.45;;;12.52;;
22711;SDS011;11523;50.390;8.072;2024-03-02T03:37:19;15.90;;;12.18;;
22711;SDS011;11523;50.390;8.072;2024-03-02T03:39:45;14.45;;;12.35;;
22711;SDS011;11523;50.390;8.072;2024-03-02T03:42:11;17.08;;;13.32;;
22711;SDS011;11523;50.390;8.072;2024-03-02T03:44:37;16.92;;;12.93;;
22711;SDS011;11523;50.390;8.072;2024-03-02T03:47:04;15.27;;;11.88;;
22711;SDS011;11523;50.390;8.072;2024-03-02T03:49:30;17.67;;;12.25;;
22711;SDS011;11523;50.390;8.072;2024-03-02T03:51:56;18.80;;;14.10;;
22711;SDS011;11523;50.390;8.072;2024-03-02T03:54:22;18.67;;;13.63;;
22711;SDS011;11523;50.390;8.072;2024-03-02T03:56:54;18.90;;;13.88;;
22711;SDS011;11523;50.390;8.072;2024-03-02T03:59:21;16.70;;;12.68;;
22711;SDS011;11523;50.390;8.072;2024-03-02T04:01:47;19.15;;;13.55;;
22711;SDS011;11523;50.390;8.072;2024-03-02T04:04:13;18.58;;;13.40;;
22711;SDS011;11523;50.390;8.072;2024-03-02T04:06:39;19.00;;;13.68;;
22711;SDS011;11523;50.390;8.072;2024-03-02T04:09:05;19.60;;;14.10;;
22711;SDS011;11523;50.390;8.072;2024-03-02T04:11:31;17.70;;;12.65;;
22711;SDS011;11523;50.390;8.072;2024-03-02T04:14:03;16.88;;;13.65;;
22711;SDS011;11523;50.390;8.072;2024-03-02T04:16:31;16.40;;;12.57;;
22711;SDS011;11523;50.390;8.072;2024-03-02T04:18:57;18.65;;;13.57;;
22711;SDS011;11523;50.390;8.072;2024-03-02T04:21:23;16.38;;;13.02;;
22711;SDS011;11523;50.390;8.072;2024-03-02T04:23:49;16.67;;;13.20;;
22711;SDS011;11523;50.390;8.072;2024-03-02T04:26:15;16.98;;;13.65;;
22711;SDS011;11523;50.390;8.072;2024-03-02T04:28:44;18.40;;;13.18;;
22711;SDS011;11523;50.390;8.072;2024-03-02T04:31:10;18.50;;;13.82;;
22711;SDS011;11523;50.390;8.072;2024-03-02T04:33:36;15.40;;;12.77;;
22711;SDS011;11523;50.390;8.072;2024-03-02T04:36:02;18.20;;;13.45;;
22711;SDS011;11523;50.390;8.072;2024-03-02T04:38:28;18.10;;;13.63;;
22711;SDS011;11523;50.390;8.072;2024-03-02T04:40:55;17.25;;;12.95;;
22711;SDS011;11523;50.390;8.072;2024-03-02T04:43:21;17.42;;;13.35;;
22711;SDS011;11523;50.390;8.072;2024-03-02T04:45:47;19.77;;;14.18;;
22711;SDS011;11523;50.390;8.072;2024-03-02T04:48:13;21.58;;;14.45;;
22711;SDS011;11523;50.390;8.072;2024-03-02T04:50:39;17.40;;;13.27;;
22711;SDS011;11523;50.390;8.072;2024-03-02T04:53:05;19.45;;;14.43;;
22711;SDS011;11523;50.390;8.072;2024-03-02T04:55:31;16.48;;;13.70;;
22711;SDS011;11523;50.390;8.072;2024-03-02T04:58:00;17.70;;;13.40;;
22711;SDS011;11523;50.390;8.072;2024-03-02T05:00:26;20.25;;;13.13;;
22711;SDS011;11523;50.390;8.072;2024-03-02T05:02:51;21.38;;;13.93;;
22711;SDS011;11523;50.390;8.072;2024-03-02T05:05:17;19.10;;;14.20;;
22711;SDS011;11523;50.390;8.072;2024-03-02T05:07:43;18.35;;;13.30;;
22711;SDS011;11523;50.390;8.072;2024-03-02T05:10:09;17.50;;;13.35;;
22711;SDS011;11523;50.390;8.072;2024-03-02T05:12:36;19.05;;;13.55;;
22711;SDS011;11523;50.390;8.072;2024-03-02T05:15:21;19.02;;;13.65;;
22711;SDS011;11523;50.390;8.072;2024-03-02T05:17:47;17.00;;;13.50;;
22711;SDS011;11523;50.390;8.072;2024-03-02T05:20:13;19.10;;;13.75;;
22711;SDS011;11523;50.390;8.072;2024-03-02T05:22:39;18.33;;;13.90;;
22711;SDS011;11523;50.390;8.072;2024-03-02T05:25:05;19.10;;;14.35;;
22711;SDS011;11523;50.390;8.072;2024-03-02T05:27:31;19.60;;;14.15;;
22711;SDS011;11523;50.390;8.072;2024-03-02T05:30:00;17.25;;;13.45;;
22711;SDS011;11523;50.390;8.072;2024-03-02T05:32:26;20.00;;;13.95;;
22711;SDS011;11523;50.390;8.072;2024-03-02T05:34:53;19.63;;;14.57;;
22711;SDS011;11523;50.390;8.072;2024-03-02T05:37:19;18.98;;;14.48;;
22711;SDS011;11523;50.390;8.072;2024-03-02T05:39:45;19.30;;;13.93;;
22711;SDS011;11523;50.390;8.072;2024-03-02T05:42:11;22.17;;;13.95;;
22711;SDS011;11523;50.390;8.072;2024-03-02T05:44:37;20.02;;;14.43;;
22711;SDS011;11523;50.390;8.072;2024-03-02T05:47:03;20.20;;;13.98;;
22711;SDS011;11523;50.390;8.072;2024-03-02T05:49:29;18.27;;;14.50;;
22711;SDS011;11523;50.390;8.072;2024-03-02T05:51:55;19.15;;;14.15;;
22711;SDS011;11523;50.390;8.072;2024-03-02T05:54:21;20.80;;;14.52;;
22711;SDS011;11523;50.390;8.072;2024-03-02T05:56:47;20.80;;;14.15;;
22711;SDS011;11523;50.390;8.072;2024-03-02T05:59:13;20.38;;;13.90;;
22711;SDS011;11523;50.390;8.072;2024-03-02T06:01:44;18.08;;;14.75;;
22711;SDS011;11523;50.390;8.072;2024-03-02T06:04:17;19.35;;;14.13;;
22711;SDS011;11523;50.390;8.072;2024-03-02T06:06:43;21.95;;;14.77;;
22711;SDS011;11523;50.390;8.072;2024-03-02T06:09:09;19.50;;;14.35;;
22711;SDS011;11523;50.390;8.072;2024-03-02T06:11:39;19.05;;;14.60;;
22711;SDS011;11523;50.390;8.072;2024-03-02T06:14:05;21.15;;;14.35;;
22711;SDS011;11523;50.390;8.072;2024-03-02T06:16:31;19.48;;;14.48;;
22711;SDS011;11523;50.390;8.072;2024-03-02T06:18:58;20.58;;;14.68;;
22711;SDS011;11523;50.390;8.072;2024-03-02T06:21:24;21.80;;;14.65;;
22711;SDS011;11523;50.390;8.072;2024-03-02T06:23:50;19.10;;;14.07;;
22711;SDS011;11523;50.390;8.072;2024-03-02T06:26:16;20.45;;;15.25;;
22711;SDS011;11523;50.390;8.072;2024-03-02T06:28:42;20.63;;;14.57;;
22711;SDS011;11523;50.390;8.072;2024-03-02T06:31:08;20.67;;;15.32;;
22711;SDS011;11523;50.390;8.072;2024-03-02T06:33:34;19.88;;;15.23;;
22711;SDS011;11523;50.390;8.072;2024-03-02T06:36:01;21.08;;;15.93;;
22711;SDS011;11523;50.390;8.072;2024-03-02T06:38:27;20.58;;;16.17;;
22711;SDS011;11523;50.390;8.072;2024-03-02T06:40:52;21.10;;;16.85;;
22711;SDS011;11523;50.390;8.072;2024-03-02T06:43:20;19.83;;;15.02;;
22711;SDS011;11523;50.390;8.072;2024-03-02T06:45:49;20.15;;;14.50;;
22711;SDS011;11523;50.390;8.072;2024-03-02T06:48:15;20.90;;;14.77;;
22711;SDS011;11523;50.390;8.072;2024-03-02T06:50:44;19.20;;;14.60;;
22711;SDS011;11523;50.390;8.072;2024-03-02T06:53:10;20.50;;;15.45;;
22711;SDS011;11523;50.390;8.072;2024-03-02T06:55:36;22.23;;;15.50;;
22711;SDS011;11523;50.390;8.072;2024-03-02T06:58:02;22.55;;;16.95;;
22711;SDS011;11523;50.390;8.072;2024-03-02T07:00:29;21.50;;;15.60;;
22711;SDS011;11523;50.390;8.072;2024-03-02T07:02:54;23.75;;;17.00;;
22711;SDS011;11523;50.390;8.072;2024-03-02T07:05:20;20.35;;;15.75;;
22711;SDS011;11523;50.390;8.072;2024-03-02T07:07:46;21.55;;;15.68;;
22711;SDS011;11523;50.390;8.072;2024-03-02T07:10:12;21.70;;;15.55;;
22711;SDS011;11523;50.390;8.072;2024-03-02T07:12:38;23.10;;;17.27;;
22711;SDS011;11523;50.390;8.072;2024-03-02T07:15:04;23.30;;;17.63;;
22711;SDS011;11523;50.390;8.072;2024-03-02T07:17:31;22.40;;;17.33;;
22711;SDS011;11523;50.390;8.072;2024-03-02T07:19:57;20.02;;;15.18;;
22711;SDS011;11523;50.390;8.072;2024-03-02T07:22:23;20.88;;;15.65;;
22711;SDS011;11523;50.390;8.072;2024-03-02T07:24:49;25.00;;;17.20;;
22711;SDS011;11523;50.390;8.072;2024-03-02T07:27:16;23.10;;;16.15;;
22711;SDS011;11523;50.390;8.072;2024-03-02T07:29:42;23.92;;;16.75;;
22711;SDS011;11523;50.390;8.072;2024-03-02T07:32:09;23.63;;;16.70;;
22711;SDS011;11523;50.390;8.072;2024-03-02T07:34:35;23.95;;;16.92;;
22711;SDS011;11523;50.390;8.072;2024-03-02T07:37:01;24.95;;;17.05;;
22711;SDS011;11523;50.390;8.072;2024-03-02T07:39:27;23.33;;;17.92;;
22711;SDS011;11523;50.390;8.072;2024-03-02T07:41:54;24.20;;;18.38;;
22711;SDS011;11523;50.390;8.072;2024-03-02T07:44:20;22.98;;;18.00;;
22711;SDS011;11523;50.390;8.072;2024-03-02T07:46:46;22.77;;;17.92;;
22711;SDS011;11523;50.390;8.072;2024-03-02T07:49:14;22.27;;;17.98;;
22711;SDS011;11523;50.390;8.072;2024-03-02T07:51:40;24.25;;;17.13;;
22711;SDS011;11523;50.390;8.072;2024-03-02T07:54:06;24.90;;;17.02;;
22711;SDS011;11523;50.390;8.072;2024-03-02T07:56:32;20.77;;;16.13;;
22711;SDS011;11523;50.390;8.072;2024-03-02T07:58:58;23.00;;;15.23;;
22711;SDS011;11523;50.390;8.072;2024-03-02T08:01:31;18.90;;;15.27;;
22711;SDS011;11523;50.390;8.072;2024-03-02T08:03:57;19.88;;;15.23;;
22711;SDS011;11523;50.390;8.072;2024-03-02T08:06:27;20.73;;;16.33;;
22711;SDS011;11523;50.390;8.072;2024-03-02T08:08:53;21.63;;;16.27;;
22711;SDS011;11523;50.390;8.072;2024-03-02T08:11:20;20.55;;;15.30;;
22711;SDS011;11523;50.390;8.072;2024-03-02T08:13:46;18.73;;;14.63;;
22711;SDS011;11523;50.390;8.072;2024-03-02T08:16:12;23.33;;;16.40;;
22711;SDS011;11523;50.390;8.072;2024-03-02T08:18:38;21.60;;;15.68;;
22711;SDS011;11523;50.390;8.072;2024-03-02T08:21:04;23.35;;;16.70;;
22711;SDS011;11523;50.390;8.072;2024-03-02T08:23:30;20.05;;;15.93;;
22711;SDS011;11523;50.390;8.072;2024-03-02T08:25:57;20.38;;;15.68;;
22711;SDS011;11523;50.390;8.072;2024-03-02T08:28:23;20.08;;;14.85;;
22711;SDS011;11523;50.390;8.072;2024-03-02T08:30:49;18.90;;;15.40;;
22711;SDS011;11523;50.390;8.072;2024-03-02T08:33:15;24.42;;;14.98;;
22711;SDS011;11523;50.390;8.072;2024-03-02T08:35:40;19.58;;;14.77;;
22711;SDS011;11523;50.390;8.072;2024-03-02T08:38:06;21.13;;;16.17;;
22711;SDS011;11523;50.390;8.072;2024-03-02T08:40:39;20.38;;;15.27;;
22711;SDS011;11523;50.390;8.072;2024-03-02T08:43:05;20.08;;;14.45;;
22711;SDS011;11523;50.390;8.072;2024-03-02T08:45:32;23.48;;;15.65;;
22711;SDS011;11523;50.390;8.072;2024-03-02T08:47:59;19.77;;;15.77;;
22711;SDS011;11523;50.390;8.072;2024-03-02T08:50:25;19.52;;;15.13;;
22711;SDS011;11523;50.390;8.072;2024-03-02T08:52:51;20.48;;;15.95;;
22711;SDS011;11523;50.390;8.072;2024-03-02T08:55:17;17.85;;;14.30;;
22711;SDS011;11523;50.390;8.072;2024-03-02T08:57:43;19.25;;;14.27;;
22711;SDS011;11523;50.390;8.072;2024-03-02T09:00:09;18.55;;;13.18;;
22711;SDS011;11523;50.390;8.072;2024-03-02T09:02:35;20.80;;;13.48;;
22711;SDS011;11523;50.390;8.072;2024-03-02T09:05:01;15.20;;;13.38;;
22711;SDS011;11523;50.390;8.072;2024-03-02T09:07:34;17.52;;;13.30;;
22711;SDS011;11523;50.390;8.072;2024-03-02T09:10:00;17.70;;;12.82;;
22711;SDS011;11523;50.390;8.072;2024-03-02T09:12:26;15.55;;;12.60;;
22711;SDS011;11523;50.390;8.072;2024-03-02T09:14:52;16.65;;;12.05;;
22711;SDS011;11523;50.390;8.072;2024-03-02T09:17:18;15.43;;;13.02;;
22711;SDS011;11523;50.390;8.072;2024-03-02T09:19:44;16.00;;;11.50;;
22711;SDS011;11523;50.390;8.072;2024-03-02T09:22:10;13.30;;;11.00;;
22711;SDS011;11523;50.390;8.072;2024-03-02T09:24:36;13.85;;;10.98;;
22711;SDS011;11523;50.390;8.072;2024-03-02T09:27:02;11.65;;;10.02;;
22711;SDS011;11523;50.390;8.072;2024-03-02T09:29:28;13.50;;;9.30;;
22711;SDS011;11523;50.390;8.072;2024-03-02T09:31:54;12.70;;;9.63;;
22711;SDS011;11523;50.390;8.072;2024-03-02T09:34:20;12.00;;;9.45;;
22711;SDS011;11523;50.390;8.072;2024-03-02T09:36:47;13.65;;;10.07;;
22711;SDS011;11523;50.390;8.072;2024-03-02T09:39:13;11.75;;;9.60;;
22711;SDS011;11523;50.390;8.072;2024-03-02T09:41:39;12.40;;;9.20;;
22711;SDS011;11523;50.390;8.072;2024-03-02T09:44:06;13.18;;;9.60;;
22711;SDS011;11523;50.390;8.072;2024-03-02T09:46:31;11.45;;;8.80;;
22711;SDS011;11523;50.390;8.072;2024-03-02T09:48:58;12.27;;;8.32;;
22711;SDS011;11523;50.390;8.072;2024-03-02T09:51:24;9.73;;;8.30;;
22711;SDS011;11523;50.390;8.072;2024-03-02T09:53:50;10.32;;;8.40;;
22711;SDS011;11523;50.390;8.072;2024-03-02T09:56:16;12.63;;;9.48;;
22711;SDS011;11523;50.390;8.072;2024-03-02T09:58:43;10.10;;;8.23;;
22711;SDS011;11523;50.390;8.072;2024-03-02T10:01:09;9.50;;;8.30;;
22711;SDS011;11523;50.390;8.072;2024-03-02T10:03:36;14.15;;;8.05;;
22711;SDS011;11523;50.390;8.072;2024-03-02T10:08:47;11.63;;;7.90;;
22711;SDS011;11523;50.390;8.072;2024-03-02T10:11:25;11.02;;;7.43;;
22711;SDS011;11523;50.390;8.072;2024-03-02T10:14:03;8.73;;;6.72;;
22711;SDS011;11523;50.390;8.072;2024-03-02T10:16:30;6.90;;;6.15;;
22711;SDS011;11523;50.390;8.072;2024-03-02T10:18:56;7.68;;;4.38;;
22711;SDS011;11523;50.390;8.072;2024-03-02T10:21:21;4.57;;;4.00;;
22711;SDS011;11523;50.390;8.072;2024-03-02T10:23:49;4.20;;;3.53;;
22711;SDS011;11523;50.390;8.072;2024-03-02T10:26:18;3.80;;;3.10;;
22711;SDS011;11523;50.390;8.072;2024-03-02T10:28:47;4.53;;;2.83;;
22711;SDS011;11523;50.390;8.072;2024-03-02T10:31:13;3.15;;;2.53;;
22711;SDS011;11523;50.390;8.072;2024-03-02T10:33:39;4.47;;;2.90;;
22711;SDS011;11523;50.390;8.072;2024-03-02T10:36:05;3.70;;;2.53;;
22711;SDS011;11523;50.390;8.072;2024-03-02T10:38:31;3.08;;;2.53;;
22711;SDS011;11523;50.390;8.072;2024-03-02T10:40:57;3.33;;;2.60;;
22711;SDS011;11523;50.390;8.072;2024-03-02T10:43:24;5.68;;;2.50;;
22711;SDS011;11523;50.390;8.072;2024-03-02T10:45:51;4.32;;;2.45;;
22711;SDS011;11523;50.390;8.072;2024-03-02T10:48:18;4.20;;;2.67;;
22711;SDS011;11523;50.390;8.072;2024-03-02T10:50:44;4.70;;;3.72;;
22711;SDS011;11523;50.390;8.072;2024-03-02T10:53:10;4.20;;;3.75;;
22711;SDS011;11523;50.390;8.072;2024-03-02T10:55:36;4.25;;;3.13;;
22711;SDS011;11523;50.390;8.072;2024-03-02T10:58:04;4.13;;;3.08;;
22711;SDS011;11523;50.390;8.072;2024-03-02T11:00:33;4.20;;;2.55;;
22711;SDS011;11523;50.390;8.072;2024-03-02T11:03:05;3.65;;;2.78;;
22711;SDS011;11523;50.390;8.072;2024-03-02T11:05:35;5.93;;;4.38;;
22711;SDS011;11523;50.390;8.072;2024-03-02T11:08:02;5.20;;;4.22;;
22711;SDS011;11523;50.390;8.072;2024-03-02T11:10:34;6.05;;;4.60;;
22711;SDS011;11523;50.390;8.072;2024-03-02T11:13:01;6.00;;;4.30;;
22711;SDS011;11523;50.390;8.072;2024-03-02T11:15:29;5.78;;;4.78;;
22711;SDS011;11523;50.390;8.072;2024-03-02T11:17:56;6.85;;;4.40;;
22711;SDS011;11523;50.390;8.072;2024-03-02T11:20:22;6.55;;;4.63;;
22711;SDS011;11523;50.390;8.072;2024-03-02T11:22:49;5.25;;;4.10;;
22711;SDS011;11523;50.390;8.072;2024-03-02T11:25:25;5.07;;;4.57;;
22711;SDS011;11523;50.390;8.072;2024-03-02T11:32:59;5.57;;;4.93;;
22711;SDS011;11523;50.390;8.072;2024-03-02T11:35:26;6.03;;;4.55;;
22711;SDS011;11523;50.390;8.072;2024-03-02T11:37:53;7.03;;;3.67;;
22711;SDS011;11523;50.390;8.072;2024-03-02T11:40:23;4.25;;;2.90;;
22711;SDS011;11523;50.390;8.072;2024-03-02T11:42:50;3.35;;;2.78;;
22711;SDS011;11523;50.390;8.072;2024-03-02T11:45:16;3.40;;;2.60;;
22711;SDS011;11523;50.390;8.072;2024-03-02T11:47:55;4.30;;;2.78;;
22711;SDS011;11523;50.390;8.072;2024-03-02T11:50:34;2.75;;;2.13;;
22711;SDS011;11523;50.390;8.072;2024-03-02T11:53:02;2.67;;;2.05;;
22711;SDS011;11523;50.390;8.072;2024-03-02T11:55:31;2.92;;;2.40;;
22711;SDS011;11523;50.390;8.072;2024-03-02T11:57:57;2.47;;;2.17;;
22711;SDS011;11523;50.390;8.072;2024-03-02T12:00:24;3.15;;;2.33;;
22711;SDS011;11523;50.390;8.072;2024-03-02T12:03:00;2.92;;;2.00;;
22711;SDS011;11523;50.390;8.072;2024-03-02T12:05:27;2.90;;;2.28;;
22711;SDS011;11523;50.390;8.072;2024-03-02T12:07:57;2.08;;;1.92;;
22711;SDS011;11523;50.390;8.072;2024-03-02T12:10:23;1.95;;;1.73;;
22711;SDS011;11523;50.390;8.072;2024-03-02T12:12:55;2.10;;;1.80;;
22711;SDS011;11523;50.390;8.072;2024-03-02T12:15:30;2.88;;;1.90;;
22711;SDS011;11523;50.390;8.072;2024-03-02T12:17:57;2.25;;;1.80;;
22711;SDS011;11523;50.390;8.072;2024-03-02T12:20:24;3.72;;;1.67;;
22711;SDS011;11523;50.390;8.072;2024-03-02T12:22:50;2.35;;;1.80;;
22711;SDS011;11523;50.390;8.072;2024-03-02T12:25:17;2.22;;;1.65;;
22711;SDS011;11523;50.390;8.072;2024-03-02T12:27:44;2.67;;;1.70;;
22711;SDS011;11523;50.390;8.072;2024-03-02T12:30:11;1.90;;;1.40;;
22711;SDS011;11523;50.390;8.072;2024-03-02T12:32:38;1.55;;;1.35;;
22711;SDS011;11523;50.390;8.072;2024-03-02T12:35:05;2.55;;;1.75;;
22711;SDS011;11523;50.390;8.072;2024-03-02T12:37:31;1.40;;;1.30;;
22711;SDS011;11523;50.390;8.072;2024-03-02T12:39:57;2.25;;;1.70;;
22711;SDS011;11523;50.390;8.072;2024-03-02T12:42:23;1.42;;;1.33;;
22711;SDS011;11523;50.390;8.072;2024-03-02T12:44:53;1.55;;;1.30;;
22711;SDS011;11523;50.390;8.072;2024-03-02T12:47:20;3.03;;;1.65;;
22711;SDS011;11523;50.390;8.072;2024-03-02T12:49:46;2.30;;;1.45;;
22711;SDS011;11523;50.390;8.072;2024-03-02T12:52:12;1.85;;;1.55;;
22711;SDS011;11523;50.390;8.072;2024-03-02T12:54:38;1.80;;;1.60;;
22711;SDS011;11523;50.390;8.072;2024-03-02T12:57:04;2.03;;;1.55;;
22711;SDS011;11523;50.390;8.072;2024-03-02T12:59:30;3.15;;;2.20;;
22711;SDS011;11523;50.390;8.072;2024-03-02T13:01:56;4.20;;;2.00;;
22711;SDS011;11523;50.390;8.072;2024-03-02T13:04:26;4.28;;;2.28;;
22711;SDS011;11523;50.390;8.072;2024-03-02T13:06:53;2.80;;;2.10;;
22711;SDS011;11523;50.390;8.072;2024-03-02T13:09:21;2.75;;;1.92;;
22711;SDS011;11523;50.390;8.072;2024-03-02T13:11:47;2.90;;;2.20;;
22711;SDS011;11523;50.390;8.072;2024-03-02T13:14:13;1.70;;;1.50;;
22711;SDS011;11523;50.390;8.072;2024-03-02T13:16:39;2.17;;;1.77;;
22711;SDS011;11523;50.390;8.072;2024-03-02T13:19:11;1.85;;;1.70;;
22711;SDS011;11523;50.390;8.072;2024-03-02T13:21:37;2.33;;;1.60;;
22711;SDS011;11523;50.390;8.072;2024-03-02T13:24:04;2.33;;;1.30;;
22711;SDS011;11523;50.390;8.072;2024-03-02T13:26:30;1.20;;;1.10;;
22711;SDS011;11523;50.390;8.072;2024-03-02T13:28:56;1.33;;;1.23;;
22711;SDS011;11523;50.390;8.072;2024-03-02T13:31:22;1.30;;;0.95;;
22711;SDS011;11523;50.390;8.072;2024-03-02T13:33:48;1.42;;;1.20;;
22711;SDS011;11523;50.390;8.072;2024-03-02T13:36:14;3.08;;;1.45;;
22711;SDS011;11523;50.390;8.072;2024-03-02T13:38:40;1.85;;;1.42;;
22711;SDS011;11523;50.390;8.072;2024-03-02T13:41:06;1.63;;;1.35;;
22711;SDS011;11523;50.390;8.072;2024-03-02T13:43:32;1.98;;;1.10;;
22711;SDS011;11523;50.390;8.072;2024-03-02T13:46:00;1.98;;;1.30;;
22711;SDS011;11523;50.390;8.072;2024-03-02T13:48:26;1.58;;;1.48;;
22711;SDS011;11523;50.390;8.072;2024-03-02T13:50:52;1.92;;;1.60;;
22711;SDS011;11523;50.390;8.072;2024-03-02T13:53:18;4.80;;;1.40;;
22711;SDS011;11523;50.390;8.072;2024-03-02T13:55:44;1.35;;;1.15;;
22711;SDS011;11523;50.390;8.072;2024-03-02T13:58:10;1.38;;;0.85;;
22711;SDS011;11523;50.390;8.072;2024-03-02T14:00:42;1.17;;;1.05;;
22711;SDS011;11523;50.390;8.072;2024-03-02T14:03:10;1.10;;;0.80;;
22711;SDS011;11523;50.390;8.072;2024-03-02T14:05:36;1.40;;;1.30;;
22711;SDS011;11523;50.390;8.072;2024-03-02T14:08:02;2.03;;;1.60;;
22711;SDS011;11523;50.390;8.072;2024-03-02T14:10:29;2.20;;;1.77;;
22711;SDS011;11523;50.390;8.072;2024-03-02T14:12:55;1.48;;;1.38;;
22711;SDS011;11523;50.390;8.072;2024-03-02T14:15:21;1.85;;;1.15;;
22711;SDS011;11523;50.390;8.072;2024-03-02T14:17:47;2.13;;;1.30;;
22711;SDS011;11523;50.390;8.072;2024-03-02T14:20:13;2.40;;;1.80;;
22711;SDS011;11523;50.390;8.072;2024-03-02T14:22:39;2.50;;;1.50;;
22711;SDS011;11523;50.390;8.072;2024-03-02T14:25:05;2.30;;;1.88;;
22711;SDS011;11523;50.390;8.072;2024-03-02T14:27:31;2.35;;;1.80;;
22711;SDS011;11523;50.390;8.072;2024-03-02T14:29:57;1.92;;;1.60;;
22711;SDS011;11523;50.390;8.072;2024-03-02T14:32:23;2.05;;;1.67;;
22711;SDS011;11523;50.390;8.072;2024-03-02T14:34:49;2.67;;;1.60;;
22711;SDS011;11523;50.390;8.072;2024-03-02T14:37:15;2.15;;;1.52;;
22711;SDS011;11523;50.390;8.072;2024-03-02T14:39:41;1.92;;;1.45;;